PWSweather.com
Personal Weather Stations
Station Observations
SARATOGA
Aldara Apartments, Saratoga Springs, UT 84045

Aldara ApartmentsSaratoga Springs, UT 84045

Lat: 40.384864, Lon: -111.913644

Elevation: 4531

Station Type: VantagePro 2

Latest ConditionsUpdated 2:28:07 AM MST Thursday, Feb 23, 2017
Currently Today's Max Today's Min Today's Average
Temperature 29.2°F-1.6°C 32.2°F0.1°C 29.2°F-1.6°C 30.7°F-0.7°C
Dew Point 26.6°F-3.0°C 30.7°F-0.7°C 26.6°F-3.0°C 28.0°F-2.2°C
Winds 5.0 mph NNE8.0 kmh NNE 8.0 mph NE12.9 kmh NE - 3.6 mph 5.8 kmh
Wind Gusts 5.0 mph8.0 kmh 9.0 mph14.5 kmh - -
Humidity 90% 95% 88% 90%
Pressure 29.54 in1000.3 mb 29.58 in1001.7 mb 29.54 in1000.3 mb -
Hour Temp Dew Point Humidity Winds Wind Gusts Pressure Precip Precip Rate Daily Precip Total
02:28 AM 29.2°F-1.6°C 26.6°F-3.0°C 90% 5.0 mph NNE8.0 kmh NNE 5.0 mph8.0 kmh 29.54 in1000.3 mb 0.00 in0.0 mm 0.00 in0.0 mm 0.00 in0.0 mm
02:27 AM 29.2°F-1.6°C 26.6°F-3.0°C 90% 3.0 mph NNE4.8 kmh NNE 4.0 mph6.4 kmh 29.54 in1000.3 mb 0.00 in0.0 mm 0.00 in0.0 mm 0.00 in0.0 mm
02:26 AM 29.2°F-1.6°C 26.6°F-3.0°C 90% 4.0 mph NNE6.4 kmh NNE 5.0 mph8.0 kmh 29.54 in1000.3 mb 0.00 in0.0 mm 0.00 in0.0 mm 0.00 in0.0 mm
02:25 AM 29.2°F-1.6°C 26.6°F-3.0°C 90% 4.0 mph NNE6.4 kmh NNE 4.0 mph6.4 kmh 29.54 in1000.3 mb 0.00 in0.0 mm 0.00 in0.0 mm 0.00 in0.0 mm
02:24 AM 29.2°F-1.6°C 26.6°F-3.0°C 90% 3.0 mph NNE4.8 kmh NNE 5.0 mph8.0 kmh 29.54 in1000.3 mb 0.00 in0.0 mm 0.00 in0.0 mm 0.00 in0.0 mm
02:23 AM 29.3°F-1.5°C 26.7°F-2.9°C 90% 4.0 mph NNE6.4 kmh NNE 5.0 mph8.0 kmh 29.54 in1000.3 mb 0.00 in0.0 mm 0.00 in0.0 mm 0.00 in0.0 mm
02:22 AM 29.3°F-1.5°C 26.7°F-2.9°C 90% 1.0 mph NNE1.6 kmh NNE 5.0 mph8.0 kmh 29.55 in1000.7 mb 0.00 in0.0 mm 0.00 in0.0 mm 0.00 in0.0 mm
02:21 AM 29.3°F-1.5°C 26.7°F-2.9°C 90% 2.0 mph NNE3.2 kmh NNE 5.0 mph8.0 kmh 29.54 in1000.3 mb 0.00 in0.0 mm 0.00 in0.0 mm 0.00 in0.0 mm
02:20 AM 29.3°F-1.5°C 26.7°F-2.9°C 90% 2.0 mph NNE3.2 kmh NNE 6.0 mph9.7 kmh 29.55 in1000.7 mb 0.00 in0.0 mm 0.00 in0.0 mm 0.00 in0.0 mm
02:19 AM 29.3°F-1.5°C 26.7°F-2.9°C 90% 4.0 mph NNE6.4 kmh NNE 6.0 mph9.7 kmh 29.54 in1000.3 mb 0.00 in0.0 mm 0.00 in0.0 mm 0.00 in0.0 mm
02:18 AM 29.3°F-1.5°C 26.7°F-2.9°C 90% 4.0 mph NNE6.4 kmh NNE 6.0 mph9.7 kmh 29.55 in1000.7 mb 0.00 in0.0 mm 0.00 in0.0 mm 0.00 in0.0 mm
02:17 AM 29.3°F-1.5°C 26.7°F-2.9°C 90% 6.0 mph NNE9.7 kmh NNE 6.0 mph9.7 kmh 29.54 in1000.3 mb 0.00 in0.0 mm 0.00 in0.0 mm 0.00 in0.0 mm
02:16 AM 29.3°F-1.5°C 26.7°F-2.9°C 90% 4.0 mph NNE6.4 kmh NNE 6.0 mph9.7 kmh 29.54 in1000.3 mb 0.00 in0.0 mm 0.00 in0.0 mm 0.00 in0.0 mm
02:15 AM 29.4°F-1.4°C 26.8°F-2.9°C 90% 3.0 mph NNE4.8 kmh NNE 6.0 mph9.7 kmh 29.54 in1000.3 mb 0.00 in0.0 mm 0.00 in0.0 mm 0.00 in0.0 mm
02:14 AM 29.4°F-1.4°C 26.8°F-2.9°C 90% 3.0 mph NNE4.8 kmh NNE 7.0 mph11.3 kmh 29.54 in1000.3 mb 0.00 in0.0 mm 0.00 in0.0 mm 0.00 in0.0 mm
02:13 AM 29.4°F-1.4°C 26.8°F-2.9°C 90% 7.0 mph NNE11.3 kmh NNE 7.0 mph11.3 kmh 29.54 in1000.3 mb 0.00 in0.0 mm 0.00 in0.0 mm 0.00 in0.0 mm
02:12 AM 29.4°F-1.4°C 26.8°F-2.9°C 90% 4.0 mph NNE6.4 kmh NNE 5.0 mph8.0 kmh 29.54 in1000.3 mb 0.00 in0.0 mm 0.00 in0.0 mm 0.00 in0.0 mm
02:11 AM 29.5°F-1.4°C 26.9°F-2.8°C 90% 4.0 mph NNE6.4 kmh NNE 8.0 mph12.9 kmh 29.54 in1000.3 mb 0.00 in0.0 mm 0.00 in0.0 mm 0.00 in0.0 mm
02:10 AM 29.5°F-1.4°C 26.9°F-2.8°C 90% 6.0 mph NNE9.7 kmh NNE 8.0 mph12.9 kmh 29.54 in1000.3 mb 0.00 in0.0 mm 0.00 in0.0 mm 0.00 in0.0 mm
02:09 AM 29.6°F-1.3°C 27.0°F-2.8°C 90% 8.0 mph NNE12.9 kmh NNE 8.0 mph12.9 kmh 29.54 in1000.3 mb 0.00 in0.0 mm 0.00 in0.0 mm 0.00 in0.0 mm
02:08 AM 29.6°F-1.3°C 27.0°F-2.8°C 90% 5.0 mph NNE8.0 kmh NNE 7.0 mph11.3 kmh 29.54 in1000.3 mb 0.00 in0.0 mm 0.00 in0.0 mm 0.00 in0.0 mm
02:07 AM 29.6°F-1.3°C 27.0°F-2.8°C 90% 5.0 mph NNE8.0 kmh NNE 7.0 mph11.3 kmh 29.54 in1000.3 mb 0.00 in0.0 mm 0.00 in0.0 mm 0.00 in0.0 mm
02:06 AM 29.6°F-1.3°C 27.0°F-2.8°C 90% 5.0 mph NNE8.0 kmh NNE 5.0 mph8.0 kmh 29.54 in1000.3 mb 0.00 in0.0 mm 0.00 in0.0 mm 0.00 in0.0 mm
02:05 AM 29.7°F-1.3°C 27.1°F-2.7°C 90% 2.0 mph NNE3.2 kmh NNE 4.0 mph6.4 kmh 29.54 in1000.3 mb 0.00 in0.0 mm 0.00 in0.0 mm 0.00 in0.0 mm
02:04 AM 29.7°F-1.3°C 27.1°F-2.7°C 90% 4.0 mph NNE6.4 kmh NNE 4.0 mph6.4 kmh 29.54 in1000.3 mb 0.00 in0.0 mm 0.00 in0.0 mm 0.00 in0.0 mm
02:03 AM 29.7°F-1.3°C 27.1°F-2.7°C 90% 4.0 mph NNE6.4 kmh NNE 5.0 mph8.0 kmh 29.54 in1000.3 mb 0.00 in0.0 mm 0.00 in0.0 mm 0.00 in0.0 mm
02:02 AM 29.7°F-1.3°C 27.1°F-2.7°C 90% 2.0 mph NNE3.2 kmh NNE 5.0 mph8.0 kmh 29.54 in1000.3 mb 0.00 in0.0 mm 0.00 in0.0 mm 0.00 in0.0 mm
02:01 AM 29.7°F-1.3°C 27.1°F-2.7°C 90% 3.0 mph NNE4.8 kmh NNE 5.0 mph8.0 kmh 29.54 in1000.3 mb 0.00 in0.0 mm 0.00 in0.0 mm 0.00 in0.0 mm
02:00 AM 29.7°F-1.3°C 27.1°F-2.7°C 90% 3.0 mph NNE4.8 kmh NNE 5.0 mph8.0 kmh 29.54 in1000.3 mb 0.00 in0.0 mm 0.00 in0.0 mm 0.00 in0.0 mm
01:59 AM 29.7°F-1.3°C 27.1°F-2.7°C 90% 4.0 mph NNE6.4 kmh NNE 5.0 mph8.0 kmh 29.54 in1000.3 mb 0.00 in0.0 mm 0.00 in0.0 mm 0.00 in0.0 mm
01:58 AM 29.7°F-1.3°C 27.1°F-2.7°C 90% 2.0 mph NNE3.2 kmh NNE 4.0 mph6.4 kmh 29.54 in1000.3 mb 0.00 in0.0 mm 0.00 in0.0 mm 0.00 in0.0 mm
01:57 AM 29.8°F-1.2°C 27.2°F-2.7°C 90% 3.0 mph NNE4.8 kmh NNE 5.0 mph8.0 kmh 29.54 in1000.3 mb 0.00 in0.0 mm 0.00 in0.0 mm 0.00 in0.0 mm
01:56 AM 29.8°F-1.2°C 27.2°F-2.7°C 90% 3.0 mph NNE4.8 kmh NNE 5.0 mph8.0 kmh 29.54 in1000.3 mb 0.00 in0.0 mm 0.00 in0.0 mm 0.00 in0.0 mm
01:55 AM 29.8°F-1.2°C 27.2°F-2.7°C 90% 4.0 mph NNE6.4 kmh NNE 6.0 mph9.7 kmh 29.54 in1000.3 mb 0.00 in0.0 mm 0.00 in0.0 mm 0.00 in0.0 mm
01:54 AM 29.8°F-1.2°C 27.2°F-2.7°C 90% 5.0 mph NNE8.0 kmh NNE 6.0 mph9.7 kmh 29.54 in1000.3 mb 0.00 in0.0 mm 0.00 in0.0 mm 0.00 in0.0 mm
01:53 AM 29.8°F-1.2°C 27.2°F-2.7°C 90% 4.0 mph NNE6.4 kmh NNE 7.0 mph11.3 kmh 29.54 in1000.3 mb 0.00 in0.0 mm 0.00 in0.0 mm 0.00 in0.0 mm
01:52 AM 29.9°F-1.2°C 27.3°F-2.6°C 90% 7.0 mph NNE11.3 kmh NNE 7.0 mph11.3 kmh 29.54 in1000.3 mb 0.00 in0.0 mm 0.00 in0.0 mm 0.00 in0.0 mm
01:51 AM 29.9°F-1.2°C 27.3°F-2.6°C 90% 6.0 mph NNE9.7 kmh NNE 6.0 mph9.7 kmh 29.54 in1000.3 mb 0.00 in0.0 mm 0.00 in0.0 mm 0.00 in0.0 mm
01:50 AM 29.9°F-1.2°C 27.3°F-2.6°C 90% 3.0 mph NNE4.8 kmh NNE 5.0 mph8.0 kmh 29.54 in1000.3 mb 0.00 in0.0 mm 0.00 in0.0 mm 0.00 in0.0 mm
01:49 AM 29.9°F-1.2°C 27.3°F-2.6°C 90% 4.0 mph NNE6.4 kmh NNE 6.0 mph9.7 kmh 29.54 in1000.3 mb 0.00 in0.0 mm 0.00 in0.0 mm 0.00 in0.0 mm
01:48 AM 29.9°F-1.2°C 27.3°F-2.6°C 90% 4.0 mph NNE6.4 kmh NNE 7.0 mph11.3 kmh 29.54 in1000.3 mb 0.00 in0.0 mm 0.00 in0.0 mm 0.00 in0.0 mm
01:47 AM 30.0°F-1.1°C 27.4°F-2.6°C 90% 5.0 mph NNE8.0 kmh NNE 7.0 mph11.3 kmh 29.54 in1000.3 mb 0.00 in0.0 mm 0.00 in0.0 mm 0.00 in0.0 mm
01:46 AM 30.0°F-1.1°C 27.4°F-2.6°C 90% 6.0 mph NNE9.7 kmh NNE 7.0 mph11.3 kmh 29.54 in1000.3 mb 0.00 in0.0 mm 0.00 in0.0 mm 0.00 in0.0 mm
01:45 AM 30.0°F-1.1°C 27.4°F-2.6°C 90% 5.0 mph NNE8.0 kmh NNE 9.0 mph14.5 kmh 29.54 in1000.3 mb 0.00 in0.0 mm 0.00 in0.0 mm 0.00 in0.0 mm
01:44 AM 30.0°F-1.1°C 27.4°F-2.6°C 90% 6.0 mph NNE9.7 kmh NNE 9.0 mph14.5 kmh 29.54 in1000.3 mb 0.00 in0.0 mm 0.00 in0.0 mm 0.00 in0.0 mm
01:43 AM 30.1°F-1.1°C 27.5°F-2.5°C 90% 4.0 mph NNE6.4 kmh NNE 7.0 mph11.3 kmh 29.54 in1000.3 mb 0.00 in0.0 mm 0.00 in0.0 mm 0.00 in0.0 mm
01:42 AM 30.1°F-1.1°C 27.5°F-2.5°C 90% 4.0 mph NNE6.4 kmh NNE 5.0 mph8.0 kmh 29.54 in1000.3 mb 0.00 in0.0 mm 0.00 in0.0 mm 0.00 in0.0 mm
01:41 AM 30.1°F-1.1°C 27.5°F-2.5°C 90% 3.0 mph NNE4.8 kmh NNE 5.0 mph8.0 kmh 29.55 in1000.7 mb 0.00 in0.0 mm 0.00 in0.0 mm 0.00 in0.0 mm
01:40 AM 30.1°F-1.1°C 27.5°F-2.5°C 90% 3.0 mph NNE4.8 kmh NNE 5.0 mph8.0 kmh 29.55 in1000.7 mb 0.00 in0.0 mm 0.00 in0.0 mm 0.00 in0.0 mm
01:39 AM 30.1°F-1.1°C 27.5°F-2.5°C 90% 5.0 mph NNE8.0 kmh NNE 8.0 mph12.9 kmh 29.55 in1000.7 mb 0.00 in0.0 mm 0.00 in0.0 mm 0.00 in0.0 mm
01:38 AM 30.1°F-1.1°C 27.5°F-2.5°C 90% 5.0 mph NNE8.0 kmh NNE 8.0 mph12.9 kmh 29.55 in1000.7 mb 0.00 in0.0 mm 0.00 in0.0 mm 0.00 in0.0 mm
01:37 AM 30.2°F-1.0°C 27.6°F-2.4°C 90% 5.0 mph NNE8.0 kmh NNE 7.0 mph11.3 kmh 29.55 in1000.7 mb 0.00 in0.0 mm 0.00 in0.0 mm 0.00 in0.0 mm
01:36 AM 30.2°F-1.0°C 27.6°F-2.4°C 90% 6.0 mph NNE9.7 kmh NNE 6.0 mph9.7 kmh 29.55 in1000.7 mb 0.00 in0.0 mm 0.00 in0.0 mm 0.00 in0.0 mm
01:35 AM 30.2°F-1.0°C 27.6°F-2.4°C 90% 3.0 mph NNE4.8 kmh NNE 5.0 mph8.0 kmh 29.55 in1000.7 mb 0.00 in0.0 mm 0.00 in0.0 mm 0.00 in0.0 mm
01:34 AM 30.2°F-1.0°C 27.6°F-2.4°C 90% 5.0 mph NNE8.0 kmh NNE 6.0 mph9.7 kmh 29.55 in1000.7 mb 0.00 in0.0 mm 0.00 in0.0 mm 0.00 in0.0 mm
01:33 AM 30.2°F-1.0°C 27.6°F-2.4°C 90% 6.0 mph NNE9.7 kmh NNE 6.0 mph9.7 kmh 29.55 in1000.7 mb 0.00 in0.0 mm 0.00 in0.0 mm 0.00 in0.0 mm
01:32 AM 30.2°F-1.0°C 27.6°F-2.4°C 90% 2.0 mph NNE3.2 kmh NNE 7.0 mph11.3 kmh 29.55 in1000.7 mb 0.00 in0.0 mm 0.00 in0.0 mm 0.00 in0.0 mm
01:31 AM 30.2°F-1.0°C 27.6°F-2.4°C 90% 6.0 mph NNE9.7 kmh NNE 7.0 mph11.3 kmh 29.55 in1000.7 mb 0.00 in0.0 mm 0.00 in0.0 mm 0.00 in0.0 mm
01:30 AM 30.3°F-0.9°C 27.7°F-2.4°C 90% 5.0 mph NNE8.0 kmh NNE 7.0 mph11.3 kmh 29.55 in1000.7 mb 0.00 in0.0 mm 0.00 in0.0 mm 0.00 in0.0 mm
01:29 AM 30.3°F-0.9°C 27.7°F-2.4°C 90% 6.0 mph NNE9.7 kmh NNE 8.0 mph12.9 kmh 29.55 in1000.7 mb 0.00 in0.0 mm 0.00 in0.0 mm 0.00 in0.0 mm
01:28 AM 30.3°F-0.9°C 27.7°F-2.4°C 90% 6.0 mph NNE9.7 kmh NNE 8.0 mph12.9 kmh 29.55 in1000.7 mb 0.00 in0.0 mm 0.00 in0.0 mm 0.00 in0.0 mm
01:27 AM 30.3°F-0.9°C 27.7°F-2.4°C 90% 6.0 mph NE9.7 kmh NE 6.0 mph9.7 kmh 29.55 in1000.7 mb 0.00 in0.0 mm 0.00 in0.0 mm 0.00 in0.0 mm
01:26 AM 30.3°F-0.9°C 27.7°F-2.4°C 90% 3.0 mph NE4.8 kmh NE 4.0 mph6.4 kmh 29.55 in1000.7 mb 0.00 in0.0 mm 0.00 in0.0 mm 0.00 in0.0 mm
01:25 AM 30.3°F-0.9°C 27.7°F-2.4°C 90% 4.0 mph NE6.4 kmh NE 6.0 mph9.7 kmh 29.55 in1000.7 mb 0.00 in0.0 mm 0.00 in0.0 mm 0.00 in0.0 mm
01:24 AM 30.3°F-0.9°C 27.7°F-2.4°C 90% 3.0 mph NE4.8 kmh NE 7.0 mph11.3 kmh 29.55 in1000.7 mb 0.00 in0.0 mm 0.00 in0.0 mm 0.00 in0.0 mm
01:23 AM 30.4°F-0.9°C 27.8°F-2.3°C 90% 7.0 mph NE11.3 kmh NE 8.0 mph12.9 kmh 29.55 in1000.7 mb 0.00 in0.0 mm 0.00 in0.0 mm 0.00 in0.0 mm
01:22 AM 30.4°F-0.9°C 27.8°F-2.3°C 90% 8.0 mph NE12.9 kmh NE 8.0 mph12.9 kmh 29.55 in1000.7 mb 0.00 in0.0 mm 0.00 in0.0 mm 0.00 in0.0 mm
01:21 AM 30.4°F-0.9°C 27.8°F-2.3°C 90% 6.0 mph NE9.7 kmh NE 7.0 mph11.3 kmh 29.55 in1000.7 mb 0.00 in0.0 mm 0.00 in0.0 mm 0.00 in0.0 mm
01:20 AM 30.4°F-0.9°C 27.8°F-2.3°C 90% 5.0 mph NE8.0 kmh NE 9.0 mph14.5 kmh 29.55 in1000.7 mb 0.00 in0.0 mm 0.00 in0.0 mm 0.00 in0.0 mm
01:19 AM 30.5°F-0.8°C 27.9°F-2.3°C 90% 8.0 mph NE12.9 kmh NE 9.0 mph14.5 kmh 29.55 in1000.7 mb 0.00 in0.0 mm 0.00 in0.0 mm 0.00 in0.0 mm
01:18 AM 30.5°F-0.8°C 27.9°F-2.3°C 90% 6.0 mph NNE9.7 kmh NNE 7.0 mph11.3 kmh 29.55 in1000.7 mb 0.00 in0.0 mm 0.00 in0.0 mm 0.00 in0.0 mm
01:17 AM 30.5°F-0.8°C 27.9°F-2.3°C 90% 7.0 mph NNE11.3 kmh NNE 8.0 mph12.9 kmh 29.55 in1000.7 mb 0.00 in0.0 mm 0.00 in0.0 mm 0.00 in0.0 mm
01:16 AM 30.5°F-0.8°C 27.9°F-2.3°C 90% 5.0 mph NNE8.0 kmh NNE 8.0 mph12.9 kmh 29.55 in1000.7 mb 0.00 in0.0 mm 0.00 in0.0 mm 0.00 in0.0 mm
01:15 AM 30.5°F-0.8°C 27.9°F-2.3°C 90% 7.0 mph NNE11.3 kmh NNE 7.0 mph11.3 kmh 29.56 in1001.0 mb 0.00 in0.0 mm 0.00 in0.0 mm 0.00 in0.0 mm
01:14 AM 30.5°F-0.8°C 27.7°F-2.4°C 89% 4.0 mph NNE6.4 kmh NNE 5.0 mph8.0 kmh 29.55 in1000.7 mb 0.00 in0.0 mm 0.00 in0.0 mm 0.00 in0.0 mm
01:13 AM 30.5°F-0.8°C 27.7°F-2.4°C 89% 3.0 mph NNE4.8 kmh NNE 5.0 mph8.0 kmh 29.56 in1001.0 mb 0.00 in0.0 mm 0.00 in0.0 mm 0.00 in0.0 mm
01:12 AM 30.6°F-0.8°C 27.8°F-2.3°C 89% 3.0 mph NNE4.8 kmh NNE 5.0 mph8.0 kmh 29.55 in1000.7 mb 0.00 in0.0 mm 0.00 in0.0 mm 0.00 in0.0 mm
01:11 AM 30.6°F-0.8°C 28.0°F-2.2°C 90% 3.0 mph NNE4.8 kmh NNE 5.0 mph8.0 kmh 29.56 in1001.0 mb 0.00 in0.0 mm 0.00 in0.0 mm 0.00 in0.0 mm
01:10 AM 30.6°F-0.8°C 28.0°F-2.2°C 90% 5.0 mph NNE8.0 kmh NNE 7.0 mph11.3 kmh 29.55 in1000.7 mb 0.00 in0.0 mm 0.00 in0.0 mm 0.00 in0.0 mm
01:09 AM 30.6°F-0.8°C 27.8°F-2.3°C 89% 5.0 mph NNE8.0 kmh NNE 5.0 mph8.0 kmh 29.55 in1000.7 mb 0.00 in0.0 mm 0.00 in0.0 mm 0.00 in0.0 mm
01:08 AM 30.7°F-0.7°C 27.9°F-2.3°C 89% 5.0 mph NNE8.0 kmh NNE 6.0 mph9.7 kmh 29.56 in1001.0 mb 0.00 in0.0 mm 0.00 in0.0 mm 0.00 in0.0 mm
01:07 AM 30.7°F-0.7°C 27.9°F-2.3°C 89% 3.0 mph NNE4.8 kmh NNE 6.0 mph9.7 kmh 29.56 in1001.0 mb 0.00 in0.0 mm 0.00 in0.0 mm 0.00 in0.0 mm
01:06 AM 30.7°F-0.7°C 27.9°F-2.3°C 89% 4.0 mph NNE6.4 kmh NNE 5.0 mph8.0 kmh 29.56 in1001.0 mb 0.00 in0.0 mm 0.00 in0.0 mm 0.00 in0.0 mm
01:05 AM 30.7°F-0.7°C 27.9°F-2.3°C 89% 2.0 mph NNE3.2 kmh NNE 4.0 mph6.4 kmh 29.56 in1001.0 mb 0.00 in0.0 mm 0.00 in0.0 mm 0.00 in0.0 mm
01:04 AM 30.8°F-0.7°C 28.0°F-2.2°C 89% 3.0 mph NNE4.8 kmh NNE 4.0 mph6.4 kmh 29.56 in1001.0 mb 0.00 in0.0 mm 0.00 in0.0 mm 0.00 in0.0 mm
01:03 AM 30.8°F-0.7°C 28.0°F-2.2°C 89% 4.0 mph NNE6.4 kmh NNE 4.0 mph6.4 kmh 29.56 in1001.0 mb 0.00 in0.0 mm 0.00 in0.0 mm 0.00 in0.0 mm
01:02 AM 30.8°F-0.7°C 28.0°F-2.2°C 89% 2.0 mph NNE3.2 kmh NNE 5.0 mph8.0 kmh 29.56 in1001.0 mb 0.00 in0.0 mm 0.00 in0.0 mm 0.00 in0.0 mm
01:01 AM 30.8°F-0.7°C 28.0°F-2.2°C 89% 4.0 mph NNE6.4 kmh NNE 6.0 mph9.7 kmh 29.56 in1001.0 mb 0.00 in0.0 mm 0.00 in0.0 mm 0.00 in0.0 mm
01:00 AM 30.8°F-0.7°C 28.0°F-2.2°C 89% 5.0 mph NNE8.0 kmh NNE 7.0 mph11.3 kmh 29.56 in1001.0 mb 0.00 in0.0 mm 0.00 in0.0 mm 0.00 in0.0 mm
12:59 AM 30.9°F-0.6°C 28.1°F-2.2°C 89% 4.0 mph NNE6.4 kmh NNE 7.0 mph11.3 kmh 29.56 in1001.0 mb 0.00 in0.0 mm 0.00 in0.0 mm 0.00 in0.0 mm
12:58 AM 30.9°F-0.6°C 28.1°F-2.2°C 89% 4.0 mph NNE6.4 kmh NNE 7.0 mph11.3 kmh 29.56 in1001.0 mb 0.00 in0.0 mm 0.00 in0.0 mm 0.00 in0.0 mm
12:57 AM 31.0°F-0.6°C 28.1°F-2.2°C 89% 6.0 mph NNE9.7 kmh NNE 7.0 mph11.3 kmh 29.56 in1001.0 mb 0.00 in0.0 mm 0.00 in0.0 mm 0.00 in0.0 mm
12:56 AM 31.0°F-0.6°C 28.1°F-2.2°C 89% 5.0 mph NNE8.0 kmh NNE 8.0 mph12.9 kmh 29.56 in1001.0 mb 0.00 in0.0 mm 0.00 in0.0 mm 0.00 in0.0 mm
12:55 AM 31.0°F-0.6°C 28.1°F-2.2°C 89% 5.0 mph NNE8.0 kmh NNE 8.0 mph12.9 kmh 29.56 in1001.0 mb 0.00 in0.0 mm 0.00 in0.0 mm 0.00 in0.0 mm
12:54 AM 31.0°F-0.6°C 28.1°F-2.2°C 89% 5.0 mph NNE8.0 kmh NNE 7.0 mph11.3 kmh 29.56 in1001.0 mb 0.00 in0.0 mm 0.00 in0.0 mm 0.00 in0.0 mm
12:53 AM 31.1°F-0.5°C 28.2°F-2.1°C 89% 4.0 mph NNE6.4 kmh NNE 5.0 mph8.0 kmh 29.56 in1001.0 mb 0.00 in0.0 mm 0.00 in0.0 mm 0.00 in0.0 mm
12:52 AM 31.1°F-0.5°C 28.2°F-2.1°C 89% 4.0 mph NNE6.4 kmh NNE 4.0 mph6.4 kmh 29.56 in1001.0 mb 0.00 in0.0 mm 0.00 in0.0 mm 0.00 in0.0 mm
12:51 AM 31.2°F-0.4°C 28.3°F-2.1°C 89% 4.0 mph NNE6.4 kmh NNE 5.0 mph8.0 kmh 29.56 in1001.0 mb 0.00 in0.0 mm 0.00 in0.0 mm 0.00 in0.0 mm
12:50 AM 31.2°F-0.4°C 28.3°F-2.1°C 89% 5.0 mph NNE8.0 kmh NNE 8.0 mph12.9 kmh 29.56 in1001.0 mb 0.00 in0.0 mm 0.00 in0.0 mm 0.00 in0.0 mm
12:49 AM 31.2°F-0.4°C 28.3°F-2.1°C 89% 5.0 mph NNE8.0 kmh NNE 8.0 mph12.9 kmh 29.56 in1001.0 mb 0.00 in0.0 mm 0.00 in0.0 mm 0.00 in0.0 mm
12:48 AM 31.3°F-0.4°C 28.4°F-2.0°C 89% 4.0 mph NNE6.4 kmh NNE 5.0 mph8.0 kmh 29.56 in1001.0 mb 0.00 in0.0 mm 0.00 in0.0 mm 0.00 in0.0 mm
12:47 AM 31.3°F-0.4°C 28.4°F-2.0°C 89% 4.0 mph NNE6.4 kmh NNE 5.0 mph8.0 kmh 29.56 in1001.0 mb 0.00 in0.0 mm 0.00 in0.0 mm 0.00 in0.0 mm
12:46 AM 31.4°F-0.3°C 28.5°F-1.9°C 89% 2.0 mph NNE3.2 kmh NNE 6.0 mph9.7 kmh 29.56 in1001.0 mb 0.00 in0.0 mm 0.00 in0.0 mm 0.00 in0.0 mm
12:45 AM 31.4°F-0.3°C 28.5°F-1.9°C 89% 4.0 mph NNE6.4 kmh NNE 7.0 mph11.3 kmh 29.57 in1001.4 mb 0.00 in0.0 mm 0.00 in0.0 mm 0.00 in0.0 mm
12:44 AM 31.4°F-0.3°C 28.5°F-1.9°C 89% 3.0 mph N4.8 kmh N 7.0 mph11.3 kmh 29.56 in1001.0 mb 0.00 in0.0 mm 0.00 in0.0 mm 0.00 in0.0 mm
12:43 AM 31.5°F-0.3°C 28.6°F-1.9°C 89% 4.0 mph N6.4 kmh N 7.0 mph11.3 kmh 29.57 in1001.4 mb 0.00 in0.0 mm 0.00 in0.0 mm 0.00 in0.0 mm
12:42 AM 31.5°F-0.3°C 28.6°F-1.9°C 89% 2.0 mph N3.2 kmh N 8.0 mph12.9 kmh 29.57 in1001.4 mb 0.00 in0.0 mm 0.00 in0.0 mm 0.00 in0.0 mm
12:41 AM 31.5°F-0.3°C 28.6°F-1.9°C 89% 3.0 mph N4.8 kmh N 8.0 mph12.9 kmh 29.56 in1001.0 mb 0.00 in0.0 mm 0.00 in0.0 mm 0.00 in0.0 mm
12:40 AM 31.6°F-0.2°C 28.7°F-1.8°C 89% 2.0 mph N3.2 kmh N 5.0 mph8.0 kmh 29.57 in1001.4 mb 0.00 in0.0 mm 0.00 in0.0 mm 0.00 in0.0 mm
12:39 AM 31.6°F-0.2°C 28.7°F-1.8°C 89% 2.0 mph N3.2 kmh N 5.0 mph8.0 kmh 29.57 in1001.4 mb 0.00 in0.0 mm 0.00 in0.0 mm 0.00 in0.0 mm
12:38 AM 31.7°F-0.2°C 28.8°F-1.8°C 89% 5.0 mph N8.0 kmh N 5.0 mph8.0 kmh 29.57 in1001.4 mb 0.00 in0.0 mm 0.00 in0.0 mm 0.00 in0.0 mm
12:37 AM 31.7°F-0.2°C 28.8°F-1.8°C 89% 2.0 mph N3.2 kmh N 5.0 mph8.0 kmh 29.57 in1001.4 mb 0.00 in0.0 mm 0.00 in0.0 mm 0.00 in0.0 mm
12:36 AM 31.7°F-0.2°C 28.8°F-1.8°C 89% 3.0 mph N4.8 kmh N 5.0 mph8.0 kmh 29.57 in1001.4 mb 0.00 in0.0 mm 0.00 in0.0 mm 0.00 in0.0 mm
12:35 AM 31.7°F-0.2°C 28.8°F-1.8°C 89% Calm Calm 4.0 mph6.4 kmh 29.57 in1001.4 mb 0.00 in0.0 mm 0.00 in0.0 mm 0.00 in0.0 mm
12:34 AM 31.8°F-0.1°C 28.9°F-1.7°C 89% 2.0 mph N3.2 kmh N 4.0 mph6.4 kmh 29.57 in1001.4 mb 0.00 in0.0 mm 0.00 in0.0 mm 0.00 in0.0 mm
12:33 AM 31.8°F-0.1°C 28.9°F-1.7°C 89% 2.0 mph N3.2 kmh N 5.0 mph8.0 kmh 29.57 in1001.4 mb 0.00 in0.0 mm 0.00 in0.0 mm 0.00 in0.0 mm
12:32 AM 31.8°F-0.1°C 28.9°F-1.7°C 89% 4.0 mph N6.4 kmh N 4.0 mph6.4 kmh 29.57 in1001.4 mb 0.00 in0.0 mm 0.00 in0.0 mm 0.00 in0.0 mm
12:31 AM 31.8°F-0.1°C 28.9°F-1.7°C 89% Calm Calm 5.0 mph8.0 kmh 29.57 in1001.4 mb 0.00 in0.0 mm 0.00 in0.0 mm 0.00 in0.0 mm
12:30 AM 31.9°F-0.1°C 29.0°F-1.7°C 89% 5.0 mph N8.0 kmh N 5.0 mph8.0 kmh 29.57 in1001.4 mb 0.00 in0.0 mm 0.00 in0.0 mm 0.00 in0.0 mm
12:29 AM 31.9°F-0.1°C 29.0°F-1.7°C 89% 2.0 mph N3.2 kmh N 5.0 mph8.0 kmh 29.57 in1001.4 mb 0.00 in0.0 mm 0.00 in0.0 mm 0.00 in0.0 mm
12:28 AM 31.9°F-0.1°C 29.0°F-1.7°C 89% 3.0 mph N4.8 kmh N 5.0 mph8.0 kmh 29.57 in1001.4 mb 0.00 in0.0 mm 0.00 in0.0 mm 0.00 in0.0 mm
12:27 AM 31.9°F-0.1°C 29.0°F-1.7°C 89% 5.0 mph N8.0 kmh N 5.0 mph8.0 kmh 29.57 in1001.4 mb 0.00 in0.0 mm 0.00 in0.0 mm 0.00 in0.0 mm
12:26 AM 31.9°F-0.1°C 29.0°F-1.7°C 89% 1.0 mph N1.6 kmh N 5.0 mph8.0 kmh 29.57 in1001.4 mb 0.00 in0.0 mm 0.00 in0.0 mm 0.00 in0.0 mm
12:25 AM 32.0°F0.0°C 29.1°F-1.6°C 89% 3.0 mph N4.8 kmh N 3.0 mph4.8 kmh 29.57 in1001.4 mb 0.00 in0.0 mm 0.00 in0.0 mm 0.00 in0.0 mm
12:24 AM 32.0°F0.0°C 30.7°F-0.7°C 95% 3.0 mph N4.8 kmh N 3.0 mph4.8 kmh 29.57 in1001.4 mb 0.00 in0.0 mm 0.00 in0.0 mm 0.00 in0.0 mm
12:23 AM 32.0°F0.0°C 30.7°F-0.7°C 95% Calm Calm -- 29.57 in1001.4 mb 0.00 in0.0 mm 0.00 in0.0 mm 0.00 in0.0 mm
12:22 AM 32.0°F0.0°C 30.7°F-0.7°C 95% Calm Calm 4.0 mph6.4 kmh 29.57 in1001.4 mb 0.00 in0.0 mm 0.00 in0.0 mm 0.00 in0.0 mm
12:21 AM 32.0°F0.0°C 29.1°F-1.6°C 89% 3.0 mph N4.8 kmh N 4.0 mph6.4 kmh 29.57 in1001.4 mb 0.00 in0.0 mm 0.00 in0.0 mm 0.00 in0.0 mm
12:20 AM 32.0°F0.0°C 29.1°F-1.6°C 89% 3.0 mph N4.8 kmh N 4.0 mph6.4 kmh 29.57 in1001.4 mb 0.00 in0.0 mm 0.00 in0.0 mm 0.00 in0.0 mm
12:19 AM 32.1°F0.1°C 29.2°F-1.6°C 89% 2.0 mph N3.2 kmh N 4.0 mph6.4 kmh 29.57 in1001.4 mb 0.00 in0.0 mm 0.00 in0.0 mm 0.00 in0.0 mm
12:18 AM 32.1°F0.1°C 29.2°F-1.6°C 89% 2.0 mph N3.2 kmh N 4.0 mph6.4 kmh 29.57 in1001.4 mb 0.00 in0.0 mm 0.00 in0.0 mm 0.00 in0.0 mm
12:17 AM 32.1°F0.1°C 29.2°F-1.6°C 89% 3.0 mph N4.8 kmh N 4.0 mph6.4 kmh 29.57 in1001.4 mb 0.00 in0.0 mm 0.00 in0.0 mm 0.00 in0.0 mm
12:16 AM 32.1°F0.1°C 29.2°F-1.6°C 89% 4.0 mph N6.4 kmh N 4.0 mph6.4 kmh 29.57 in1001.4 mb 0.00 in0.0 mm 0.00 in0.0 mm 0.00 in0.0 mm
12:15 AM 32.1°F0.1°C 29.2°F-1.6°C 89% Calm Calm -- 29.57 in1001.4 mb 0.00 in0.0 mm 0.00 in0.0 mm 0.00 in0.0 mm
12:14 AM 32.1°F0.1°C 29.2°F-1.6°C 89% Calm Calm 1.0 mph1.6 kmh 29.57 in1001.4 mb 0.00 in0.0 mm 0.00 in0.0 mm 0.00 in0.0 mm
12:13 AM 32.1°F0.1°C 29.2°F-1.6°C 89% 1.0 mph N1.6 kmh N 1.0 mph1.6 kmh 29.57 in1001.4 mb 0.00 in0.0 mm 0.00 in0.0 mm 0.00 in0.0 mm
12:12 AM 32.1°F0.1°C 29.2°F-1.6°C 89% Calm Calm 2.0 mph3.2 kmh 29.57 in1001.4 mb 0.00 in0.0 mm 0.00 in0.0 mm 0.00 in0.0 mm
12:11 AM 32.1°F0.1°C 29.2°F-1.6°C 89% 1.0 mph N1.6 kmh N 2.0 mph3.2 kmh 29.57 in1001.4 mb 0.00 in0.0 mm 0.00 in0.0 mm 0.00 in0.0 mm
12:10 AM 32.1°F0.1°C 29.2°F-1.6°C 89% 1.0 mph N1.6 kmh N 3.0 mph4.8 kmh 29.57 in1001.4 mb 0.00 in0.0 mm 0.00 in0.0 mm 0.00 in0.0 mm
12:09 AM 32.1°F0.1°C 29.0°F-1.7°C 88% Calm Calm 3.0 mph4.8 kmh 29.57 in1001.4 mb 0.00 in0.0 mm 0.00 in0.0 mm 0.00 in0.0 mm
12:08 AM 32.1°F0.1°C 29.0°F-1.7°C 88% 1.0 mph N1.6 kmh N 1.0 mph1.6 kmh 29.57 in1001.4 mb 0.00 in0.0 mm 0.00 in0.0 mm 0.00 in0.0 mm
12:07 AM 32.1°F0.1°C 29.0°F-1.7°C 88% Calm Calm 2.0 mph3.2 kmh 29.57 in1001.4 mb 0.00 in0.0 mm 0.00 in0.0 mm 0.00 in0.0 mm
12:06 AM 32.1°F0.1°C 29.0°F-1.7°C 88% Calm Calm 3.0 mph4.8 kmh 29.57 in1001.4 mb 0.00 in0.0 mm 0.00 in0.0 mm 0.00 in0.0 mm
12:05 AM 32.2°F0.1°C 29.1°F-1.6°C 88% Calm Calm 4.0 mph6.4 kmh 29.57 in1001.4 mb 0.00 in0.0 mm 0.00 in0.0 mm 0.00 in0.0 mm
12:04 AM 32.2°F0.1°C 29.1°F-1.6°C 88% 3.0 mph N4.8 kmh N 4.0 mph6.4 kmh 29.57 in1001.4 mb 0.00 in0.0 mm 0.00 in0.0 mm 0.00 in0.0 mm
12:03 AM 32.2°F0.1°C 29.1°F-1.6°C 88% Calm Calm 1.0 mph1.6 kmh 29.57 in1001.4 mb 0.00 in0.0 mm 0.00 in0.0 mm 0.00 in0.0 mm
12:02 AM 32.2°F0.1°C 29.1°F-1.6°C 88% Calm Calm 1.0 mph1.6 kmh 29.57 in1001.4 mb 0.00 in0.0 mm 0.00 in0.0 mm 0.00 in0.0 mm
12:01 AM 32.2°F0.1°C 29.1°F-1.6°C 88% Calm Calm 2.0 mph3.2 kmh 29.58 in1001.7 mb 0.00 in0.0 mm 0.00 in0.0 mm 0.00 in0.0 mm
12:00 AM 32.2°F0.1°C 29.1°F-1.6°C 88% 1.0 mph N1.6 kmh N 3.0 mph4.8 kmh 29.57 in1001.4 mb 0.00 in0.0 mm 0.00 in0.0 mm 0.00 in0.0 mm